Time;durP1;ratioP1;P1;durP2;ratioP2;P2;SDS_P1;SDS_P2;PMS_P1;PMS_P2;Temp;Humidity;BMP_temperature;BMP_pressure;BME280_temperature;BME280_humidity;BME280_pressure;Samples;Min_cycle;Max_cycle;Signal;HPM_P1;HPM_P2
2022/01/04 00:01:37;;;;;;;;;;;8.60;95.30;;;;;;5071681;28;20006;-72
2022/01/04 00:04:05;;;;;;;;;;;8.60;95.50;;;;;;5071716;28;19905;-75
2022/01/04 00:06:31;;;;;;;;;;;8.50;95.40;;;;;;5071786;28;19915;-74
2022/01/04 00:09:01;;;;;;;;;;;8.60;95.50;;;;;;5073290;28;19931;-73
2022/01/04 00:11:43;;;;;;;;;;;8.60;95.50;;;;;;5071588;28;20006;-74
2022/01/04 00:14:21;;;;;;;;;;;8.60;95.50;;;;;;5071526;28;19955;-73
2022/01/04 00:16:48;;;;;;;;;;;8.50;95.40;;;;;;5073257;28;20277;-72
2022/01/04 00:19:14;;;;;;;;;;;8.50;95.30;;;;;;5071811;28;19909;-73
2022/01/04 00:21:42;;;;;;;;;;;8.50;95.30;;;;;;5074249;28;20377;-73
2022/01/04 00:24:08;;;;;;;;;;;8.50;95.30;;;;;;5076667;28;20407;-75
2022/01/04 00:26:34;;;;;;;;;;;8.50;95.50;;;;;;5058366;28;19909;-73
2022/01/04 00:29:01;;;;;;;;;;;8.50;95.50;;;;;;5074964;28;19957;-73
2022/01/04 00:31:27;;;;;;;;;;;8.50;95.50;;;;;;5075007;28;19912;-73
2022/01/04 00:33:53;;;;;;;;;;;8.50;95.50;;;;;;5076146;28;20351;-74
2022/01/04 00:36:19;;;;;;;;;;;8.50;95.30;;;;;;5076347;28;19989;-74
2022/01/04 00:38:46;;;;;;;;;;;8.60;95.30;;;;;;5076395;28;19977;-74
2022/01/04 00:41:12;;;;;;;;;;;8.50;95.00;;;;;;5074952;28;20369;-74
2022/01/04 00:43:38;;;;;;;;;;;8.60;95.10;;;;;;5074625;28;20015;-74
2022/01/04 00:46:05;;;;;;;;;;;8.60;94.90;;;;;;5074608;28;19909;-74
2022/01/04 00:50:57;;;;;;;;;;;8.60;94.80;;;;;;5076325;28;19958;-73
2022/01/04 00:53:22;;;;;;;;;;;8.60;94.80;;;;;;5096102;28;19912;-73
2022/01/04 00:55:49;;;;;;;;;;;8.50;94.80;;;;;;5077970;28;19926;-73
2022/01/04 00:58:15;;;;;;;;;;;8.60;94.60;;;;;;5095943;28;19931;-73
2022/01/04 01:00:41;;;;;;;;;;;8.50;94.50;;;;;;5096162;28;19949;-74
2022/01/04 01:03:09;;;;;;;;;;;8.50;94.50;;;;;;5095894;28;20352;-73
2022/01/04 01:05:35;;;;;;;;;;;8.50;94.60;;;;;;5077760;28;19962;-74
2022/01/04 01:08:02;;;;;;;;;;;8.40;94.70;;;;;;5096005;28;19908;-73
2022/01/04 01:10:47;;;;;;;;;;;8.40;94.60;;;;;;5095956;28;19904;-74
2022/01/04 01:13:14;;;;;;;;;;;8.40;94.60;;;;;;5077489;28;20071;-73
2022/01/04 01:15:43;;;;;;;;;;;8.40;94.60;;;;;;5077578;28;19987;-73
2022/01/04 01:18:24;;;;;;;;;;;8.40;94.60;;;;;;5096026;28;19904;-73
2022/01/04 01:20:50;;;;;;;;;;;8.30;94.50;;;;;;5077547;28;19953;-75
2022/01/04 01:23:20;;;;;;;;;;;8.40;94.30;;;;;;5095454;28;19916;-74
2022/01/04 01:25:55;;;;;;;;;;;8.30;94.20;;;;;;5077680;28;19915;-73
2022/01/04 01:28:21;;;;;;;;;;;8.30;94.30;;;;;;5077351;28;19933;-73
2022/01/04 01:30:48;;;;;;;;;;;8.30;94.20;;;;;;5070868;28;19904;-75
2022/01/04 01:33:16;;;;;;;;;;;8.30;94.20;;;;;;5054845;28;19916;-74
2022/01/04 01:35:43;;;;;;;;;;;8.30;94.30;;;;;;5076345;28;20082;-74
2022/01/04 01:38:12;;;;;;;;;;;8.30;94.20;;;;;;5077268;28;19987;-73
2022/01/04 01:40:40;;;;;;;;;;;8.30;94.10;;;;;;5077431;28;19908;-74
2022/01/04 01:43:08;;;;;;;;;;;8.20;94.10;;;;;;5095337;28;19904;-74
2022/01/04 01:45:34;;;;;;;;;;;8.20;94.20;;;;;;5076929;28;19931;-74
2022/01/04 01:48:01;;;;;;;;;;;8.20;94.60;;;;;;5076896;28;20492;-74
2022/01/04 01:50:28;;;;;;;;;;;8.20;94.20;;;;;;5076760;28;19916;-74
2022/01/04 01:52:54;;;;;;;;;;;8.20;94.20;;;;;;5073162;28;19916;-74
2022/01/04 01:55:25;;;;;;;;;;;8.10;94.10;;;;;;5074686;28;20385;-72
2022/01/04 01:57:51;;;;;;;;;;;8.10;94.20;;;;;;5073415;28;19920;-74
2022/01/04 02:00:23;;;;;;;;;;;8.10;94.20;;;;;;5056630;28;19923;-73
2022/01/04 02:02:48;;;;;;;;;;;8.10;94.30;;;;;;5073312;28;19933;-74
2022/01/04 02:05:18;;;;;;;;;;;8.00;94.40;;;;;;5074500;28;19991;-75
2022/01/04 02:07:49;;;;;;;;;;;8.00;94.50;;;;;;5056506;28;19958;-72
2022/01/04 02:10:15;;;;;;;;;;;8.00;94.50;;;;;;5056474;28;19908;-73
2022/01/04 02:12:44;;;;;;;;;;;7.90;94.50;;;;;;5074408;28;19912;-73
2022/01/04 02:15:11;;;;;;;;;;;7.90;94.60;;;;;;5072894;28;20042;-75
2022/01/04 02:17:37;;;;;;;;;;;7.80;94.60;;;;;;5073371;28;19958;-74
2022/01/04 02:20:04;;;;;;;;;;;7.80;94.70;;;;;;5073053;28;19908;-73
2022/01/04 02:22:30;;;;;;;;;;;7.80;94.70;;;;;;5074298;28;19912;-74
2022/01/04 02:24:57;;;;;;;;;;;7.80;94.70;;;;;;5072968;28;19999;-73
2022/01/04 02:27:24;;;;;;;;;;;7.80;94.60;;;;;;5072819;28;19904;-73
2022/01/04 02:29:50;;;;;;;;;;;7.80;94.70;;;;;;5072617;28;19904;-73
2022/01/04 02:32:16;;;;;;;;;;;7.80;94.80;;;;;;5072840;28;20281;-74
2022/01/04 02:34:49;;;;;;;;;;;7.80;94.90;;;;;;5072676;28;19915;-74
2022/01/04 02:37:27;;;;;;;;;;;7.70;95.30;;;;;;5071110;28;19905;-74
2022/01/04 02:39:57;;;;;;;;;;;7.70;95.50;;;;;;5055901;28;20388;-75
2022/01/04 02:42:24;;;;;;;;;;;7.60;95.70;;;;;;5055796;28;19912;-74
2022/01/04 02:44:50;;;;;;;;;;;7.60;95.80;;;;;;5073914;28;19968;-74
2022/01/04 02:47:16;;;;;;;;;;;7.60;95.80;;;;;;5073655;28;19980;-74
2022/01/04 02:49:44;;;;;;;;;;;7.60;95.90;;;;;;5072472;28;19908;-74
2022/01/04 02:52:10;;;;;;;;;;;7.60;96.00;;;;;;5056181;28;20032;-73
2022/01/04 02:54:36;;;;;;;;;;;7.60;96.10;;;;;;5076415;28;20003;-74
2022/01/04 02:57:02;;;;;;;;;;;7.60;96.00;;;;;;5075420;28;19924;-74
2022/01/04 02:59:29;;;;;;;;;;;7.60;96.00;;;;;;5075056;28;19904;-74
2022/01/04 03:01:55;;;;;;;;;;;7.60;96.10;;;;;;5073884;28;19915;-73
2022/01/04 03:04:21;;;;;;;;;;;7.60;96.10;;;;;;5072195;28;19934;-74
2022/01/04 03:06:46;;;;;;;;;;;7.60;96.10;;;;;;5073607;28;19904;-74
2022/01/04 03:09:12;;;;;;;;;;;7.60;95.80;;;;;;5072024;28;19905;-74
2022/01/04 03:11:37;;;;;;;;;;;7.60;95.70;;;;;;5073839;28;20277;-73
2022/01/04 03:14:04;;;;;;;;;;;7.60;95.70;;;;;;5073254;28;19946;-74
2022/01/04 03:16:30;;;;;;;;;;;7.70;95.60;;;;;;5073784;28;19954;-74
2022/01/04 03:19:10;;;;;;;;;;;7.70;95.40;;;;;;5072055;28;20323;-73
2022/01/04 03:21:36;;;;;;;;;;;7.70;95.40;;;;;;5073558;28;19904;-74
2022/01/04 03:24:03;;;;;;;;;;;7.70;95.30;;;;;;5073222;28;20000;-74
2022/01/04 03:26:30;;;;;;;;;;;7.70;95.10;;;;;;5069828;28;20276;-74
2022/01/04 03:28:55;;;;;;;;;;;7.80;95.00;;;;;;5071919;28;20009;-73
2022/01/04 03:31:42;;;;;;;;;;;7.70;95.00;;;;;;5071432;28;19950;-74
2022/01/04 03:34:09;;;;;;;;;;;7.80;94.90;;;;;;5073044;28;19909;-75
2022/01/04 03:36:36;;;;;;;;;;;7.80;94.90;;;;;;5071606;28;19909;-73
2022/01/04 03:39:17;;;;;;;;;;;7.80;94.90;;;;;;5035552;28;19959;-74
2022/01/04 03:41:44;;;;;;;;;;;7.80;94.90;;;;;;5053221;28;19948;-72
2022/01/04 03:44:15;;;;;;;;;;;7.80;94.90;;;;;;5053157;28;20098;-74
2022/01/04 03:46:42;;;;;;;;;;;7.70;95.00;;;;;;5059876;28;19908;-75
2022/01/04 03:49:08;;;;;;;;;;;7.70;95.00;;;;;;5060986;28;19908;-74
2022/01/04 03:51:33;;;;;;;;;;;7.70;94.90;;;;;;5054838;28;19917;-74
2022/01/04 03:54:00;;;;;;;;;;;7.70;94.90;;;;;;5072984;28;19923;-73
2022/01/04 03:56:26;;;;;;;;;;;7.70;94.90;;;;;;5074033;28;19980;-74
2022/01/04 03:58:52;;;;;;;;;;;7.70;94.90;;;;;;5077160;28;19911;-74
2022/01/04 04:01:18;;;;;;;;;;;7.70;95.10;;;;;;5076886;28;19908;-74
2022/01/04 04:03:45;;;;;;;;;;;7.70;95.20;;;;;;5076981;28;19904;-73
2022/01/04 04:06:12;;;;;;;;;;;7.60;95.20;;;;;;5076915;28;19908;-74
2022/01/04 04:08:39;;;;;;;;;;;7.60;95.30;;;;;;5076949;28;20033;-75
2022/01/04 04:11:06;;;;;;;;;;;7.70;95.20;;;;;;5076705;28;19927;-74
2022/01/04 04:13:33;;;;;;;;;;;7.70;95.20;;;;;;5076036;28;19939;-73
2022/01/04 04:16:01;;;;;;;;;;;7.70;95.20;;;;;;5058578;28;19919;-74
2022/01/04 04:18:26;;;;;;;;;;;7.70;95.30;;;;;;5058568;28;19911;-74
2022/01/04 04:20:52;;;;;;;;;;;7.70;95.20;;;;;;5058541;28;19908;-74
2022/01/04 04:23:17;;;;;;;;;;;7.70;95.30;;;;;;5058435;28;19970;-73
2022/01/04 04:25:43;;;;;;;;;;;7.70;95.30;;;;;;5076500;28;20344;-74
2022/01/04 04:28:09;;;;;;;;;;;7.70;95.30;;;;;;5057696;28;19905;-74
2022/01/04 04:30:36;;;;;;;;;;;7.70;95.30;;;;;;5076554;28;19912;-75
2022/01/04 04:33:03;;;;;;;;;;;7.70;95.30;;;;;;5076395;28;19955;-74
2022/01/04 04:35:31;;;;;;;;;;;7.80;95.30;;;;;;5074841;28;20246;-75
2022/01/04 04:37:58;;;;;;;;;;;7.80;95.20;;;;;;5058479;28;20319;-74
2022/01/04 04:40:24;;;;;;;;;;;7.80;95.20;;;;;;5058290;28;20402;-73
2022/01/04 04:42:50;;;;;;;;;;;7.80;95.30;;;;;;5076174;28;19904;-72
2022/01/04 04:45:17;;;;;;;;;;;7.80;95.20;;;;;;5076037;28;19954;-73
2022/01/04 04:47:42;;;;;;;;;;;7.90;95.40;;;;;;5076228;28;19939;-74
2022/01/04 04:50:09;;;;;;;;;;;7.90;95.50;;;;;;5057950;28;19904;-74
2022/01/04 04:52:35;;;;;;;;;;;7.90;95.30;;;;;;5060932;28;19917;-74
2022/01/04 04:55:17;;;;;;;;;;;8.00;95.30;;;;;;5056050;28;19909;-74
2022/01/04 04:57:42;;;;;;;;;;;8.00;95.30;;;;;;5055843;28;19904;-74
2022/01/04 05:00:13;;;;;;;;;;;8.10;95.20;;;;;;5055700;28;19936;-74
2022/01/04 05:02:40;;;;;;;;;;;8.10;95.00;;;;;;5048774;28;19940;-74
2022/01/04 05:05:06;;;;;;;;;;;8.10;94.90;;;;;;5055765;28;20354;-74
2022/01/04 05:07:34;;;;;;;;;;;8.20;94.80;;;;;;5054650;28;20380;-74
2022/01/04 05:10:15;;;;;;;;;;;8.20;94.80;;;;;;5054044;28;19974;-74
2022/01/04 05:12:41;;;;;;;;;;;8.20;94.90;;;;;;5054414;28;20447;-74
2022/01/04 05:15:09;;;;;;;;;;;8.30;94.80;;;;;;5055765;28;19909;-75
2022/01/04 05:17:34;;;;;;;;;;;8.30;94.70;;;;;;5053472;28;19999;-74
2022/01/04 05:20:15;;;;;;;;;;;8.20;94.70;;;;;;5054400;28;19950;-77
2022/01/04 05:22:42;;;;;;;;;;;8.30;94.70;;;;;;5058530;28;19959;-77
2022/01/04 05:25:09;;;;;;;;;;;8.20;94.80;;;;;;5059652;28;20012;-77
2022/01/04 05:27:35;;;;;;;;;;;8.20;94.90;;;;;;5057090;28;19911;-77
2022/01/04 05:30:01;;;;;;;;;;;8.20;95.00;;;;;;5057582;28;19908;-77
2022/01/04 05:32:27;;;;;;;;;;;8.20;95.10;;;;;;5057157;28;20251;-77
2022/01/04 05:34:52;;;;;;;;;;;8.30;95.20;;;;;;5057365;28;20023;-78
2022/01/04 05:37:19;;;;;;;;;;;8.20;95.10;;;;;;5057536;28;19905;-78
2022/01/04 05:39:44;;;;;;;;;;;8.20;95.20;;;;;;5057437;28;20306;-76
2022/01/04 05:42:10;;;;;;;;;;;8.20;95.30;;;;;;5057534;28;19912;-75
2022/01/04 05:44:36;;;;;;;;;;;8.20;95.30;;;;;;5061205;28;20018;-77
2022/01/04 05:47:03;;;;;;;;;;;8.20;95.30;;;;;;5058738;28;20377;-77
2022/01/04 05:49:30;;;;;;;;;;;8.30;95.30;;;;;;5062034;28;19905;-77
2022/01/04 05:51:56;;;;;;;;;;;8.30;95.20;;;;;;5079273;28;19916;-78
2022/01/04 05:54:23;;;;;;;;;;;8.30;95.20;;;;;;5099784;28;19943;-78
2022/01/04 05:56:49;;;;;;;;;;;8.30;95.20;;;;;;5096220;28;20299;-78
2022/01/04 05:59:16;;;;;;;;;;;8.30;95.30;;;;;;5096036;28;20015;-78
2022/01/04 06:01:41;;;;;;;;;;;8.30;95.40;;;;;;5096798;28;19920;-78
2022/01/04 06:04:09;;;;;;;;;;;8.20;95.30;;;;;;5079231;28;19956;-78
2022/01/04 06:06:40;;;;;;;;;;;8.30;95.40;;;;;;5073954;28;20378;-78
2022/01/04 06:09:07;;;;;;;;;;;8.30;95.40;;;;;;5077896;28;20257;-78
2022/01/04 06:16:59;;;;;;;;;;;8.30;95.50;;;;;;5095938;28;19964;-78
2022/01/04 06:19:26;;;;;;;;;;;8.30;95.70;;;;;;5080828;28;19963;-79
2022/01/04 06:21:52;;;;;;;;;;;8.30;95.70;;;;;;5101710;28;20272;-78
2022/01/04 06:24:18;;;;;;;;;;;8.30;95.90;;;;;;5085214;28;20007;-78
2022/01/04 06:26:45;;;;;;;;;;;8.30;96.00;;;;;;5106738;28;19904;-78
2022/01/04 06:29:14;;;;;;;;;;;8.30;96.20;;;;;;5104237;28;19904;-78
2022/01/04 06:31:41;;;;;;;;;;;8.20;96.30;;;;;;5104722;28;19911;-78
2022/01/04 06:34:07;;;;;;;;;;;8.20;96.40;;;;;;5079284;28;20387;-78
2022/01/04 06:36:34;;;;;;;;;;;8.20;96.50;;;;;;5080111;28;19904;-80
2022/01/04 06:39:04;;;;;;;;;;;8.20;96.60;;;;;;5060198;28;19908;-81
2022/01/04 06:41:32;;;;;;;;;;;8.20;96.60;;;;;;5076095;28;19912;-81
2022/01/04 06:43:59;;;;;;;;;;;8.20;96.70;;;;;;5093913;28;20398;-82
2022/01/04 06:46:28;;;;;;;;;;;8.20;96.80;;;;;;5076757;28;19904;-82
2022/01/04 06:48:53;;;;;;;;;;;8.20;97.00;;;;;;5076780;28;19904;-80
2022/01/04 06:51:20;;;;;;;;;;;8.20;97.10;;;;;;5072586;28;19919;-80
2022/01/04 06:53:45;;;;;;;;;;;8.20;97.10;;;;;;5078305;28;19908;-80
2022/01/04 06:56:11;;;;;;;;;;;8.20;97.20;;;;;;5083440;28;19981;-80
2022/01/04 06:58:38;;;;;;;;;;;8.20;97.30;;;;;;5091673;28;20438;-80
2022/01/04 07:01:04;;;;;;;;;;;8.30;97.40;;;;;;5092414;28;19991;-81
2022/01/04 07:03:31;;;;;;;;;;;8.30;97.40;;;;;;5080079;28;19904;-79
2022/01/04 07:05:57;;;;;;;;;;;8.30;97.60;;;;;;5074031;28;19904;-79
2022/01/04 07:08:23;;;;;;;;;;;8.40;97.70;;;;;;5073519;28;19958;-78
2022/01/04 07:10:48;;;;;;;;;;;8.40;97.80;;;;;;5073747;28;19927;-80
2022/01/04 07:13:14;;;;;;;;;;;8.40;97.90;;;;;;5055119;28;19941;-79
2022/01/04 07:15:39;;;;;;;;;;;8.50;98.00;;;;;;5072768;28;19904;-79
2022/01/04 07:18:06;;;;;;;;;;;8.50;97.90;;;;;;5073147;28;20235;-79
2022/01/04 07:20:32;;;;;;;;;;;8.50;98.10;;;;;;5073276;28;19915;-76
2022/01/04 07:22:58;;;;;;;;;;;8.60;98.20;;;;;;5071351;28;19905;-76
2022/01/04 07:25:24;;;;;;;;;;;8.60;98.20;;;;;;5071735;28;19952;-76
2022/01/04 07:27:50;;;;;;;;;;;8.70;98.10;;;;;;5069741;28;19909;-75
2022/01/04 07:30:21;;;;;;;;;;;8.70;98.00;;;;;;5067912;28;19908;-71
2022/01/04 07:32:46;;;;;;;;;;;8.80;97.90;;;;;;5071394;28;19927;-73
2022/01/04 07:35:12;;;;;;;;;;;8.80;97.70;;;;;;5073019;28;19955;-77
2022/01/04 07:37:37;;;;;;;;;;;8.80;97.60;;;;;;5054161;28;19905;-79
2022/01/04 07:40:04;;;;;;;;;;;8.80;97.60;;;;;;5072400;28;20294;-74
2022/01/04 07:42:29;;;;;;;;;;;8.80;97.70;;;;;;5054626;28;19912;-78
2022/01/04 07:44:56;;;;;;;;;;;8.80;97.80;;;;;;5038368;28;19954;-80
2022/01/04 07:47:22;;;;;;;;;;;8.80;97.80;;;;;;5072699;28;19911;-82
2022/01/04 07:49:48;;;;;;;;;;;8.80;97.90;;;;;;5071161;28;19905;-77
2022/01/04 07:52:14;;;;;;;;;;;8.80;98.10;;;;;;5062299;28;19970;-80
2022/01/04 07:54:41;;;;;;;;;;;8.70;98.30;;;;;;5052686;28;19912;-78
2022/01/04 07:57:06;;;;;;;;;;;8.70;98.50;;;;;;5053100;28;20312;-73
2022/01/04 07:59:34;;;;;;;;;;;8.60;98.80;;;;;;5070421;28;20326;-81
2022/01/04 08:02:02;;;;;;;;;;;8.60;99.00;;;;;;5071531;28;20273;-74
2022/01/04 08:04:27;;;;;;;;;;;8.60;99.30;;;;;;5064307;28;19905;-74
2022/01/04 08:06:54;;;;;;;;;;;8.60;99.40;;;;;;5052972;28;20301;-73
2022/01/04 08:09:20;;;;;;;;;;;8.60;99.50;;;;;;5052965;28;19908;-78
2022/01/04 08:11:47;;;;;;;;;;;8.60;99.70;;;;;;5072096;28;19912;-72
2022/01/04 08:14:14;;;;;;;;;;;8.60;99.70;;;;;;5072639;28;20403;-78
2022/01/04 08:16:39;;;;;;;;;;;8.60;99.80;;;;;;5072851;28;19905;-72
2022/01/04 08:19:06;;;;;;;;;;;8.70;99.90;;;;;;5072660;28;20349;-74
2022/01/04 08:21:32;;;;;;;;;;;8.70;99.90;;;;;;5054170;28;19915;-76
2022/01/04 08:23:58;;;;;;;;;;;8.80;99.90;;;;;;5072686;28;19904;-78
2022/01/04 08:26:25;;;;;;;;;;;8.80;99.90;;;;;;5072930;28;19908;-75
2022/01/04 08:28:50;;;;;;;;;;;8.80;99.90;;;;;;5072519;28;19904;-75
2022/01/04 08:31:17;;;;;;;;;;;8.80;99.90;;;;;;5054635;28;20348;-77
2022/01/04 08:33:42;;;;;;;;;;;8.80;99.80;;;;;;5054126;28;20319;-73
2022/01/04 08:36:11;;;;;;;;;;;8.90;99.80;;;;;;5070553;28;19905;-79
2022/01/04 08:38:36;;;;;;;;;;;8.90;99.80;;;;;;5072090;28;19905;-74
2022/01/04 08:41:02;;;;;;;;;;;8.90;99.80;;;;;;5072432;28;19912;-76
2022/01/04 08:43:27;;;;;;;;;;;8.90;99.60;;;;;;5056320;28;19904;-72
2022/01/04 08:45:53;;;;;;;;;;;8.90;99.80;;;;;;5057757;28;19953;-75
2022/01/04 08:48:19;;;;;;;;;;;9.00;99.90;;;;;;5074579;28;19954;-76
2022/01/04 08:50:44;;;;;;;;;;;9.00;99.70;;;;;;5057138;28;20294;-76
2022/01/04 08:53:12;;;;;;;;;;;9.00;99.70;;;;;;5052526;28;19924;-75
2022/01/04 08:55:38;;;;;;;;;;;9.00;99.70;;;;;;5058029;28;19911;-82
2022/01/04 08:58:04;;;;;;;;;;;9.10;99.70;;;;;;5075761;28;20276;-76
2022/01/04 09:00:29;;;;;;;;;;;9.10;99.80;;;;;;5059835;28;19908;-75
2022/01/04 09:02:55;;;;;;;;;;;9.10;99.70;;;;;;5064604;28;19910;-76
2022/01/04 09:05:21;;;;;;;;;;;9.20;99.80;;;;;;5094208;22;19924;-82
2022/01/04 09:07:46;;;;;;;;;;;9.30;99.60;;;;;;5053566;28;19913;-76
2022/01/04 09:10:12;;;;;;;;;;;9.40;99.40;;;;;;5067640;28;19912;-79
2022/01/04 09:13:15;;;;;;;;;;;9.50;98.80;;;;;;5056340;28;19906;-78
2022/01/04 09:20:50;;;;;;;;;;;9.70;98.10;;;;;;5061636;28;19915;-77
2022/01/04 09:23:20;;;;;;;;;;;9.70;98.00;;;;;;5076136;28;19954;-76
2022/01/04 09:25:52;;;;;;;;;;;9.80;97.80;;;;;;5076414;28;20000;-73
2022/01/04 09:28:18;;;;;;;;;;;9.80;97.40;;;;;;5075147;28;19911;-75
2022/01/04 09:30:46;;;;;;;;;;;9.90;97.40;;;;;;5056990;28;19939;-80
2022/01/04 09:33:12;;;;;;;;;;;9.90;97.50;;;;;;5057828;28;19913;-76
2022/01/04 09:35:37;;;;;;;;;;;9.90;97.50;;;;;;5075145;28;19905;-76
2022/01/04 09:38:04;;;;;;;;;;;9.90;97.70;;;;;;5075260;28;19915;-76
2022/01/04 09:40:30;;;;;;;;;;;10.00;97.70;;;;;;5083918;28;19914;-78
2022/01/04 09:42:56;;;;;;;;;;;10.00;97.90;;;;;;5062515;28;19940;-75
2022/01/04 09:45:21;;;;;;;;;;;10.10;98.40;;;;;;5081920;28;19996;-74
2022/01/04 09:47:47;;;;;;;;;;;10.10;98.20;;;;;;5077758;28;20364;-78
2022/01/04 09:50:13;;;;;;;;;;;10.20;98.60;;;;;;5057943;28;19904;-84
2022/01/04 09:52:44;;;;;;;;;;;10.20;98.60;;;;;;5076278;28;19987;-76
2022/01/04 09:55:13;;;;;;;;;;;10.20;98.40;;;;;;5074272;28;19987;-76
2022/01/04 09:57:48;;;;;;;;;;;10.20;97.70;;;;;;5053112;28;20269;-81
2022/01/04 10:00:15;;;;;;;;;;;10.20;97.40;;;;;;5070049;28;19912;-78
2022/01/04 10:02:45;;;;;;;;;;;10.20;97.40;;;;;;5054922;28;19905;-74
2022/01/04 10:05:12;;;;;;;;;;;10.20;97.40;;;;;;5054561;28;20366;-80
2022/01/04 10:07:38;;;;;;;;;;;10.20;97.80;;;;;;5054578;28;19966;-77
2022/01/04 10:10:04;;;;;;;;;;;10.20;97.70;;;;;;5054575;28;19920;-78
2022/01/04 10:12:46;;;;;;;;;;;10.30;97.90;;;;;;5054443;28;19908;-78
2022/01/04 10:15:12;;;;;;;;;;;10.30;98.90;;;;;;5056093;28;19954;-78
2022/01/04 10:17:37;;;;;;;;;;;10.40;98.20;;;;;;5070790;28;19904;-80
2022/01/04 10:20:03;;;;;;;;;;;10.40;97.70;;;;;;5053432;28;20362;-76
2022/01/04 10:22:34;;;;;;;;;;;10.40;96.80;;;;;;5053477;28;20047;-79
2022/01/04 10:25:04;;;;;;;;;;;10.50;96.40;;;;;;5054567;28;19912;-79
2022/01/04 10:27:38;;;;;;;;;;;10.50;96.00;;;;;;5052977;28;20293;-80
2022/01/04 10:30:25;;;;;;;;;;;10.50;95.60;;;;;;5070503;28;19980;-83
2022/01/04 10:32:58;;;;;;;;;;;10.50;95.30;;;;;;5054460;28;19915;-76
2022/01/04 10:35:33;;;;;;;;;;;10.50;95.30;;;;;;5049687;28;19909;-75
2022/01/04 10:38:00;;;;;;;;;;;10.50;95.10;;;;;;5052157;28;19940;-75
2022/01/04 10:40:27;;;;;;;;;;;10.50;95.00;;;;;;5053932;28;19905;-76
2022/01/04 10:42:53;;;;;;;;;;;10.50;94.70;;;;;;5054889;28;19959;-81
2022/01/04 10:45:25;;;;;;;;;;;10.50;94.70;;;;;;5052922;28;19905;-77
2022/01/04 10:47:51;;;;;;;;;;;10.50;95.10;;;;;;5052035;28;19927;-76
2022/01/04 10:50:34;;;;;;;;;;;10.50;95.20;;;;;;5053388;28;20359;-77
2022/01/04 10:53:00;;;;;;;;;;;10.50;95.10;;;;;;5055903;28;19912;-77
2022/01/04 10:55:36;;;;;;;;;;;10.50;95.80;;;;;;5052149;28;19905;-76
2022/01/04 10:58:17;;;;;;;;;;;10.40;96.40;;;;;;5053600;28;19950;-75
2022/01/04 11:00:48;;;;;;;;;;;10.30;97.70;;;;;;5053616;28;19999;-77
2022/01/04 11:03:21;;;;;;;;;;;10.40;98.40;;;;;;5052079;28;20326;-77
2022/01/04 11:05:46;;;;;;;;;;;10.30;98.80;;;;;;5051035;28;19932;-74
2022/01/04 11:08:17;;;;;;;;;;;10.30;99.00;;;;;;5052021;28;20341;-75
2022/01/04 11:10:43;;;;;;;;;;;10.30;98.50;;;;;;5052300;28;19926;-75
2022/01/04 11:13:08;;;;;;;;;;;10.30;99.20;;;;;;5052416;28;19909;-76
2022/01/04 11:15:34;;;;;;;;;;;10.30;98.80;;;;;;5051941;28;20408;-77
2022/01/04 11:17:59;;;;;;;;;;;10.30;98.00;;;;;;5053320;28;19928;-78
2022/01/04 11:20:25;;;;;;;;;;;10.20;98.70;;;;;;5051973;28;19905;-77
2022/01/04 11:22:51;;;;;;;;;;;10.20;99.00;;;;;;5053191;28;20018;-77
2022/01/04 11:25:21;;;;;;;;;;;10.20;98.80;;;;;;5051846;28;19967;-78
2022/01/04 11:27:47;;;;;;;;;;;10.10;98.90;;;;;;5053581;28;19908;-76
2022/01/04 11:30:16;;;;;;;;;;;10.10;98.90;;;;;;5049027;28;19954;-74
2022/01/04 11:32:45;;;;;;;;;;;10.10;98.80;;;;;;5051303;28;19904;-77
2022/01/04 11:35:16;;;;;;;;;;;10.00;99.20;;;;;;5052470;28;20354;-74
2022/01/04 11:37:51;;;;;;;;;;;10.00;99.10;;;;;;5066763;28;19904;-75
2022/01/04 11:40:24;;;;;;;;;;;9.90;99.00;;;;;;5034764;28;19912;-78
2022/01/04 11:44:49;;;;;;;17.13;8.30;;;10.00;99.00;;;;;;5110188;27;20425;-76
2022/01/04 11:47:23;;;;;;;16.30;9.10;;;10.00;99.70;;;;;;5092589;28;20031;-83
2022/01/04 11:50:34;;;;;;;17.83;8.48;;;10.00;98.70;;;;;;5095573;28;20052;-76
2022/01/04 11:53:13;;;;;;;15.98;7.95;;;10.10;99.20;;;;;;5011519;28;20486;-76
2022/01/04 11:55:51;;;;;;;15.35;9.15;;;10.10;99.00;;;;;;5027870;28;20026;-77
2022/01/04 11:58:26;;;;;;;12.63;7.30;;;10.20;99.00;;;;;;5071539;28;20028;-77
2022/01/04 12:01:03;;;;;;;13.90;8.18;;;10.20;98.00;;;;;;5088361;28;20096;-79
2022/01/04 12:03:48;;;;;;;17.73;7.30;;;10.30;97.50;;;;;;5087518;28;20020;-77
2022/01/04 12:06:16;;;;;;;11.70;6.70;;;10.30;97.50;;;;;;5088745;28;20119;-78
2022/01/04 12:08:47;;;;;;;13.30;7.72;;;10.30;97.50;;;;;;5088562;28;20032;-77
2022/01/04 12:11:29;;;;;;;11.95;7.40;;;10.40;97.30;;;;;;5080114;28;20035;-76
2022/01/04 12:13:58;;;;;;;14.13;7.97;;;10.40;97.30;;;;;;5089491;28;20048;-74
2022/01/04 12:16:48;;;;;;;14.70;7.30;;;10.40;97.10;;;;;;5058824;28;20066;-78
2022/01/04 12:19:15;;;;;;;12.23;7.10;;;10.60;96.90;;;;;;5069313;28;20021;-74
2022/01/04 12:21:44;;;;;;;15.20;8.20;;;10.60;96.20;;;;;;5071286;28;20062;-77
2022/01/04 12:24:14;;;;;;;16.80;8.77;;;10.60;96.10;;;;;;5057003;28;20036;-80
2022/01/04 12:27:02;;;;;;;15.48;8.57;;;10.60;96.00;;;;;;5070650;28;20120;-76
2022/01/04 12:29:32;;;;;;;16.48;8.63;;;10.70;96.00;;;;;;5069165;28;20591;-74
2022/01/04 12:32:02;;;;;;;19.57;9.50;;;10.70;96.00;;;;;;5082790;28;20023;-78
2022/01/04 12:34:28;;;;;;;20.85;9.52;;;10.80;95.60;;;;;;5081263;28;20104;-76
2022/01/04 12:36:54;;;;;;;20.33;10.48;;;10.80;95.70;;;;;;5080785;28;20438;-78
2022/01/04 12:39:30;;;;;;;17.58;8.63;;;10.90;95.60;;;;;;5081873;28;20056;-77
2022/01/04 12:41:56;;;;;;;15.65;7.65;;;11.00;95.10;;;;;;5070919;28;20050;-76
2022/01/04 12:44:26;;;;;;;14.75;7.45;;;11.00;95.00;;;;;;5075294;28;20550;-76
2022/01/04 12:46:52;;;;;;;13.00;7.95;;;11.10;94.80;;;;;;5067674;28;20493;-77
2022/01/04 12:49:26;;;;;;;17.90;8.20;;;11.10;94.60;;;;;;5072289;28;20029;-77
2022/01/04 12:51:59;;;;;;;14.30;8.20;;;11.20;94.40;;;;;;5067616;28;20031;-76
2022/01/04 12:54:32;;;;;;;21.27;9.63;;;11.20;94.60;;;;;;5067628;28;20036;-76
2022/01/04 12:57:11;;;;;;;21.80;9.50;;;11.20;94.60;;;;;;5064420;28;20070;-77
2022/01/04 12:59:40;;;;;;;30.08;10.48;;;11.20;94.80;;;;;;5054223;28;20040;-78
2022/01/04 13:02:10;;;;;;;15.82;8.23;;;11.20;95.00;;;;;;5055896;28;20025;-75
2022/01/04 13:04:38;;;;;;;15.10;7.68;;;11.30;94.90;;;;;;5055669;28;20024;-75
2022/01/04 13:07:13;;;;;;;13.00;7.45;;;11.30;94.90;;;;;;5054918;28;20435;-75
2022/01/04 13:09:39;;;;;;;10.93;6.25;;;11.40;94.80;;;;;;5056199;28;20446;-77
2022/01/04 13:12:05;;;;;;;9.20;5.00;;;11.40;94.70;;;;;;5059982;28;20042;-78
2022/01/04 13:14:34;;;;;;;7.80;5.50;;;11.50;94.40;;;;;;5073637;28;20044;-75
2022/01/04 13:17:00;;;;;;;9.18;6.13;;;11.50;94.30;;;;;;5070728;28;20032;-77
2022/01/04 13:19:28;;;;;;;10.60;5.85;;;11.40;94.20;;;;;;5064860;28;20025;-75
2022/01/04 13:22:04;;;;;;;11.52;5.53;;;11.50;94.20;;;;;;5052829;28;20412;-75
2022/01/04 13:24:59;;;;;;;11.57;6.38;;;11.40;94.30;;;;;;5053993;28;20033;-74
2022/01/04 13:27:41;;;;;;;9.45;6.20;;;11.40;94.40;;;;;;5051723;28;20078;-73
2022/01/04 13:30:20;;;;;;;10.02;5.75;;;11.40;94.60;;;;;;5066801;28;20041;-73
2022/01/04 13:32:53;;;;;;;10.38;6.10;;;11.40;94.70;;;;;;5066094;28;20500;-75
2022/01/04 13:35:19;;;;;;;20.10;7.25;;;11.30;94.70;;;;;;5033040;28;20382;-76
2022/01/04 13:37:54;;;;;;;13.38;7.15;;;11.30;95.00;;;;;;5055170;28;20055;-77
2022/01/04 13:40:22;;;;;;;10.35;6.40;;;11.30;95.10;;;;;;5052315;28;20090;-77
2022/01/04 13:43:06;;;;;;;12.02;6.22;;;11.30;95.20;;;;;;5054163;28;20067;-78
2022/01/04 13:45:47;;;;;;;13.10;7.05;;;11.40;95.30;;;;;;5054330;28;20029;-75
2022/01/04 13:48:20;;;;;;;14.68;7.47;;;11.30;95.30;;;;;;5053127;28;20017;-77
2022/01/04 13:50:46;;;;;;;17.60;8.10;;;11.30;95.50;;;;;;5049763;28;20025;-76
2022/01/04 13:53:24;;;;;;;22.23;7.32;;;11.30;95.40;;;;;;5034057;28;20025;-76
2022/01/04 13:56:05;;;;;;;16.00;7.15;;;11.30;95.50;;;;;;5033139;28;20124;-78
2022/01/04 13:58:57;;;;;;;13.27;7.53;;;11.20;95.50;;;;;;5052216;28;20032;-80
2022/01/04 14:01:23;;;;;;;18.73;6.93;;;11.20;95.70;;;;;;5072769;28;20055;-78
2022/01/04 14:04:06;;;;;;;12.23;6.38;;;11.10;95.70;;;;;;5074370;28;20318;-77
2022/01/04 14:06:45;;;;;;;11.85;6.13;;;11.10;95.90;;;;;;5073216;28;20031;-81
2022/01/04 14:09:26;;;;;;;9.05;4.97;;;11.10;95.80;;;;;;5074307;28;20024;-78
2022/01/04 14:12:01;;;;;;;13.13;5.93;;;11.10;96.00;;;;;;5072591;28;20111;-79
2022/01/04 14:14:49;;;;;;;7.78;4.13;;;11.10;96.20;;;;;;5073765;28;20024;-76
2022/01/04 14:17:23;;;;;;;10.38;4.70;;;11.00;96.20;;;;;;5072337;28;20020;-77
2022/01/04 14:19:54;;;;;;;10.05;4.80;;;11.00;96.30;;;;;;5074875;28;20028;-76
2022/01/04 14:22:23;;;;;;;8.82;4.40;;;11.00;96.30;;;;;;5072323;28;20440;-76
2022/01/04 14:24:53;;;;;;;8.43;4.95;;;10.90;96.30;;;;;;5072534;28;20118;-77
2022/01/04 14:27:37;;;;;;;8.88;5.43;;;11.00;96.20;;;;;;5072145;28;20029;-74
2022/01/04 14:30:16;;;;;;;10.85;6.10;;;10.90;96.20;;;;;;5072161;28;20048;-76